Impacts TAF Board INFO
FOR SITUATIONAL AWARENESS. NOT TO BE USED FOR FLIGHT PLANNING PURPOSES.
IDs:

KBOS - Boston/Logan Intl, MA, US

Issued at 1120 UTC 21 May 2018
Updated at 1311 UTC 21 May 2018
Potential Impact None Slight Moderate High
Time1254Z 21/14Z 21/15Z 21/16Z 21/17Z 21/18Z 21/19Z 21/20Z 21/21Z 21/22Z 21/23Z 22/00Z 22/01Z 22/02Z>>
Type OBS PRVL PRVL PRVL PRVL PRVL PRVL PRVL PRVL PRVL PRVL PRVL PRVL PRVL
VIS 10 >6 >6 >6 >6 >6 >6 >6 >6 >6 >6 >6 >6 >6
CIG -- -- -- -- -- -- -- -- -- -- -- -- -- --
Cover CLR SKC SKC SKC SKC SKC SKC SKC SKC FEW FEW FEW FEW FEW
FltCat VFR VFR VFR VFR VFR VFR VFR VFR VFR VFR VFR VFR VFR VFR
WX -- -- -- -- -- -- -- -- -- -- -- -- -- --
WDir VRB 50 50 130 130 130 130 130 130 170 210 210 210 210
WSpd 4 3 3 3 3 3 3 3 3 6 6 6 6 6
WGst -- -- -- -- -- -- -- -- -- -- -- -- -- --

Raw TAF
KBOS 211120Z 2112/2218 31007KT P6SM SKC
  FM211400 05003KT P6SM SKC
  FM211600 13003KT P6SM SKC
  FM212200 17006KT P6SM FEW250
  FM212300 21006KT P6SM FEW250
  FM220600 24004KT P6SM FEW200
  FM221200 21003KT P6SM BKN130
  FM221600 18005KT P6SM BKN100


Raw METAR
KBOS 211254Z VRB04KT 10SM CLR 18/08 A3016 RMK AO2 SLP213 T01780078
KBOS 211154Z 34008KT 10SM CLR 16/08 A3015 RMK AO2 SLP209 70004 T01610078 10167 20139 53017
KBOS 211054Z 31007KT 10SM FEW250 15/08 A3013 RMK AO2 SLP202 T01500083

METAR Board
Radar Display
Forecast Discussion

FOR SITUATIONAL AWARENESS. NOT TO BE USED FOR FLIGHT PLANNING PURPOSES.